createdAt,value
2023-04-04T00:00:43.964Z,4.22
2023-04-04T00:03:12.061Z,1.48
2023-04-04T00:05:40.046Z,1.75
2023-04-04T00:08:08.070Z,1.40
2023-04-04T00:10:37.514Z,2.40
2023-04-04T00:13:05.958Z,1.58
2023-04-04T00:15:34.665Z,3.50
2023-04-04T00:18:03.969Z,2.60
2023-04-04T00:20:32.373Z,2.08
2023-04-04T00:23:00.609Z,4.75
2023-04-04T00:25:28.845Z,1.48
2023-04-04T00:28:00.906Z,1.42
2023-04-04T00:30:29.662Z,1.02
2023-04-04T00:32:58.166Z,1.55
2023-04-04T00:35:26.354Z,2.03
2023-04-04T00:37:54.430Z,3.05
2023-04-04T00:40:22.573Z,2.88
2023-04-04T00:42:51.134Z,4.18
2023-04-04T00:45:20.745Z,2.75
2023-04-04T00:47:50.208Z,2.08
2023-04-04T00:50:18.582Z,1.25
2023-04-04T00:52:46.591Z,1.83
2023-04-04T00:55:14.641Z,3.40
2023-04-04T00:57:43.366Z,1.30
2023-04-04T01:00:15.309Z,2.75
2023-04-04T01:02:44.688Z,7.13
2023-04-04T01:05:13.596Z,3.05
2023-04-04T01:07:42.916Z,3.50
2023-04-04T01:10:13.278Z,2.15
2023-04-04T01:12:43.338Z,2.35
2023-04-04T01:15:12.426Z,5.03
2023-04-04T01:17:41.940Z,4.07
2023-04-04T01:20:15.904Z,3.38
2023-04-04T01:22:52.098Z,1.90
2023-04-04T01:25:27.212Z,5.90
2023-04-04T01:27:58.254Z,4.18
2023-04-04T01:30:29.976Z,1.25
2023-04-04T01:33:02.858Z,4.18
2023-04-04T01:35:37.938Z,2.85
2023-04-04T01:38:15.825Z,1.50
2023-04-04T01:40:50.453Z,3.28
2023-04-04T01:43:19.797Z,2.80
2023-04-04T01:45:47.968Z,5.30
2023-04-04T01:48:16.750Z,3.15
2023-04-04T01:50:48.314Z,2.17
2023-04-04T01:53:17.043Z,2.95
2023-04-04T01:55:46.652Z,3.15
2023-04-04T01:58:17.657Z,2.28
2023-04-04T02:00:45.859Z,1.75
2023-04-04T02:03:13.802Z,1.08
2023-04-04T02:05:42.156Z,3.08
2023-04-04T02:08:12.242Z,3.38
2023-04-04T02:10:50.410Z,1.42
2023-04-04T02:13:18.467Z,2.28
2023-04-04T02:15:47.536Z,1.50
2023-04-04T02:18:16.311Z,1.98
2023-04-04T02:20:44.313Z,2.40
2023-04-04T02:23:12.230Z,3.38
2023-04-04T02:25:40.236Z,4.85
2023-04-04T02:28:11.485Z,3.15
2023-04-04T02:30:39.835Z,2.08
2023-04-04T02:33:08.210Z,8.27
2023-04-04T02:35:36.515Z,2.72
2023-04-04T02:38:04.505Z,2.65
2023-04-04T02:40:42.746Z,2.85
2023-04-04T02:43:12.631Z,2.00
2023-04-04T02:45:41.728Z,1.88
2023-04-04T02:48:19.042Z,3.03
2023-04-04T02:50:50.241Z,3.20
2023-04-04T02:53:18.449Z,5.80
2023-04-04T02:55:48.940Z,2.00
2023-04-04T02:58:18.483Z,1.27
2023-04-04T03:00:47.273Z,2.35
2023-04-04T03:03:15.777Z,1.27
2023-04-04T03:05:46.985Z,3.85
2023-04-04T03:08:15.007Z,0.98
2023-04-04T03:10:43.209Z,2.08
2023-04-04T03:13:11.191Z,2.67
2023-04-04T03:15:41.881Z,3.08
2023-04-04T03:18:10.027Z,5.47
2023-04-04T03:20:38.273Z,5.53
2023-04-04T03:23:06.539Z,6.93
2023-04-04T03:25:34.605Z,4.35
2023-04-04T03:28:09.817Z,5.93
2023-04-04T03:30:38.197Z,7.00
2023-04-04T03:33:08.718Z,7.30
2023-04-04T03:35:39.705Z,5.47
2023-04-04T03:38:08.012Z,3.17
2023-04-04T03:40:36.619Z,5.03
2023-04-04T03:43:11.296Z,7.75
2023-04-04T03:45:39.983Z,4.03
2023-04-04T03:48:11.082Z,7.80
2023-04-04T03:50:40.725Z,2.50
2023-04-04T03:53:09.164Z,5.15
2023-04-04T03:55:37.218Z,4.00
2023-04-04T03:58:05.886Z,5.07
2023-04-04T04:00:33.849Z,5.03
2023-04-04T04:03:01.953Z,3.58
2023-04-04T04:05:32.445Z,1.77
2023-04-04T04:08:00.355Z,8.15
2023-04-04T04:10:28.400Z,2.80
2023-04-04T04:12:57.045Z,3.88
2023-04-04T04:15:25.243Z,4.13
2023-04-04T04:17:53.916Z,6.63
2023-04-04T04:20:22.803Z,4.95
2023-04-04T04:22:55.328Z,3.45
2023-04-04T04:25:23.810Z,4.72
2023-04-04T04:28:03.842Z,4.82
2023-04-04T04:30:32.714Z,3.78
2023-04-04T04:33:00.911Z,6.45
2023-04-04T04:35:37.824Z,10.60
2023-04-04T04:38:07.779Z,7.15
2023-04-04T04:40:36.698Z,4.38
2023-04-04T04:43:14.489Z,4.28
2023-04-04T04:45:43.224Z,4.80
2023-04-04T04:48:13.115Z,5.97
2023-04-04T04:50:48.793Z,5.57
2023-04-04T04:53:26.574Z,3.00
2023-04-04T04:55:54.664Z,3.97
2023-04-04T04:58:24.463Z,4.75
2023-04-04T05:00:57.911Z,3.33
2023-04-04T05:03:32.442Z,2.42
2023-04-04T05:06:01.735Z,7.68
2023-04-04T05:08:31.649Z,2.85
2023-04-04T05:11:19.868Z,2.72
2023-04-04T05:13:48.386Z,7.45
2023-04-04T05:16:16.735Z,4.18
2023-04-04T05:18:47.669Z,4.63
2023-04-04T05:21:16.254Z,3.92
2023-04-04T05:23:48.570Z,5.20
2023-04-04T05:26:18.255Z,2.88
2023-04-04T05:28:50.366Z,4.18
2023-04-04T05:31:18.861Z,4.35
2023-04-04T05:33:47.251Z,1.40
2023-04-04T05:36:32.384Z,2.88
2023-04-04T05:39:07.256Z,3.17
2023-04-04T05:41:39.951Z,3.38
2023-04-04T05:44:16.186Z,4.18
2023-04-04T05:46:44.455Z,2.90
2023-04-04T05:49:12.758Z,3.20
2023-04-04T05:51:45.865Z,2.85
2023-04-04T05:54:17.966Z,3.25
2023-04-04T05:56:47.610Z,3.75
2023-04-04T05:59:36.688Z,4.10
2023-04-04T06:02:07.776Z,5.05
2023-04-04T06:04:41.032Z,8.40
2023-04-04T06:07:11.257Z,10.50
2023-04-04T06:09:41.237Z,3.08
2023-04-04T06:12:10.066Z,4.07
2023-04-04T06:14:38.848Z,3.60
2023-04-04T06:17:08.616Z,5.63
2023-04-04T06:19:36.865Z,3.15
2023-04-04T06:22:05.034Z,2.83
2023-04-04T06:24:37.473Z,4.50
2023-04-04T06:27:07.417Z,5.63
2023-04-04T06:29:36.821Z,5.25
2023-04-04T06:32:06.717Z,4.97
2023-04-04T06:34:40.853Z,10.30
2023-04-04T06:37:10.338Z,3.85
2023-04-04T06:39:56.589Z,5.93
2023-04-04T06:42:29.287Z,3.65
2023-04-04T06:45:00.404Z,2.25
2023-04-04T06:47:28.840Z,4.88
2023-04-04T06:49:56.869Z,9.45
2023-04-04T06:52:26.649Z,5.35
2023-04-04T06:54:54.653Z,6.65
2023-04-04T06:57:22.670Z,3.85
2023-04-04T06:59:52.114Z,7.28
2023-04-04T07:02:20.191Z,8.55
2023-04-04T07:04:48.188Z,7.25
2023-04-04T07:07:16.190Z,5.63
2023-04-04T07:09:44.261Z,6.20
2023-04-04T07:12:12.276Z,4.78
2023-04-04T07:14:40.242Z,5.05
2023-04-04T07:17:21.254Z,3.17
2023-04-04T07:19:49.776Z,5.13
2023-04-04T07:22:17.723Z,4.10
2023-04-04T07:24:45.800Z,3.40
2023-04-04T07:27:15.333Z,10.07
2023-04-04T07:29:43.507Z,4.20
2023-04-04T07:32:12.936Z,6.75
2023-04-04T07:34:40.949Z,8.02
2023-04-04T07:37:08.946Z,4.28
2023-04-04T07:39:36.956Z,9.43
2023-04-04T07:42:05.122Z,6.63
2023-04-04T07:44:33.161Z,4.68
2023-04-04T07:47:09.383Z,7.00
2023-04-04T07:49:39.426Z,6.32
2023-04-04T07:52:07.557Z,4.43
2023-04-04T07:54:35.521Z,15.23
2023-04-04T07:57:05.553Z,3.95
2023-04-04T07:59:33.708Z,10.63
2023-04-04T08:02:01.731Z,9.65
2023-04-04T08:04:29.915Z,8.07
2023-04-04T08:06:59.278Z,6.18
2023-04-04T08:09:31.343Z,3.03
2023-04-04T08:11:59.466Z,8.50
2023-04-04T08:14:27.587Z,8.75
2023-04-04T08:16:55.867Z,4.25
2023-04-04T08:19:23.934Z,8.98
2023-04-04T08:21:51.940Z,9.48
2023-04-04T08:24:22.387Z,8.50
2023-04-04T08:26:58.197Z,9.23
2023-04-04T08:29:32.963Z,9.55
2023-04-04T08:32:01.290Z,3.10
2023-04-04T08:34:29.608Z,5.93
2023-04-04T08:36:58.065Z,6.68
2023-04-04T08:39:28.161Z,9.50
2023-04-04T08:42:03.375Z,8.45
2023-04-04T08:44:31.797Z,4.28
2023-04-04T08:47:01.221Z,10.23
2023-04-04T08:49:33.275Z,7.40
2023-04-04T08:52:04.008Z,5.30
2023-04-04T08:54:35.724Z,13.63
2023-04-04T08:57:04.112Z,4.40
2023-04-04T08:59:32.712Z,2.00
2023-04-04T09:02:06.396Z,11.60
2023-04-04T09:04:34.728Z,4.78
2023-04-04T09:07:05.172Z,5.20
2023-04-04T09:09:34.977Z,2.33
2023-04-04T09:12:03.625Z,5.75
2023-04-04T09:14:32.014Z,5.60
2023-04-04T09:17:00.286Z,9.30
2023-04-04T09:19:28.851Z,5.22
2023-04-04T09:21:56.964Z,3.55
2023-04-04T09:24:25.007Z,3.53
2023-04-04T09:26:54.947Z,7.30
2023-04-04T09:29:23.478Z,5.97
2023-04-04T09:31:52.186Z,5.25
2023-04-04T09:34:21.642Z,5.70
2023-04-04T09:36:49.773Z,5.53
2023-04-04T09:39:17.827Z,3.65
2023-04-04T09:41:46.567Z,4.30
2023-04-04T09:44:17.461Z,4.38
2023-04-04T09:46:45.495Z,10.85
2023-04-04T09:49:20.612Z,3.75
2023-04-04T09:51:50.501Z,8.70
2023-04-04T09:54:29.599Z,4.40
2023-04-04T09:56:59.088Z,5.40
2023-04-04T09:59:29.912Z,3.53
2023-04-04T10:01:58.061Z,4.18
2023-04-04T10:04:27.238Z,15.02
2023-04-04T10:06:56.367Z,6.25
2023-04-04T10:09:24.618Z,4.40
2023-04-04T10:11:53.089Z,8.60
2023-04-04T10:14:37.196Z,5.57
2023-04-04T10:17:10.429Z,4.45
2023-04-04T10:19:39.450Z,5.32
2023-04-04T10:22:07.647Z,5.15
2023-04-04T10:24:36.246Z,7.57
2023-04-04T10:27:04.603Z,5.95
2023-04-04T10:29:32.790Z,4.13
2023-04-04T10:32:06.280Z,2.72
2023-04-04T10:34:48.657Z,2.42
2023-04-04T10:37:27.108Z,4.40
2023-04-04T10:40:02.659Z,4.30
2023-04-04T10:42:40.013Z,2.85
2023-04-04T10:45:19.884Z,3.38
2023-04-04T10:47:51.754Z,1.88
2023-04-04T10:50:21.360Z,7.03
2023-04-04T10:52:50.481Z,4.53
2023-04-04T10:55:20.482Z,2.60
2023-04-04T10:57:52.632Z,1.63
2023-04-04T11:00:23.608Z,2.60
2023-04-04T11:02:57.119Z,5.07
2023-04-04T11:05:27.376Z,1.95
2023-04-04T11:10:33.026Z,3.40
2023-04-04T11:13:12.681Z,4.32
2023-04-04T11:15:54.300Z,2.28
2023-04-04T11:18:33.010Z,4.85
2023-04-04T11:21:03.403Z,6.38
2023-04-04T11:24:16.575Z,6.75
2023-04-04T11:26:45.629Z,3.65
2023-04-04T11:29:24.032Z,4.28
2023-04-04T11:31:52.436Z,1.77
2023-04-04T11:34:34.084Z,4.15
2023-04-04T11:37:17.667Z,2.35
2023-04-04T11:39:56.619Z,7.22
2023-04-04T11:42:24.965Z,2.90
2023-04-04T11:45:07.553Z,8.48
2023-04-04T11:47:35.716Z,5.22
2023-04-04T11:50:10.780Z,2.47
2023-04-04T11:52:39.527Z,4.93
2023-04-04T11:55:17.211Z,5.40
2023-04-04T11:57:45.185Z,2.17
2023-04-04T12:00:16.103Z,3.13
2023-04-04T12:02:44.296Z,6.65
2023-04-04T12:05:14.656Z,3.78
2023-04-04T12:07:43.494Z,5.80
2023-04-04T12:10:12.209Z,15.68
2023-04-04T12:12:41.691Z,11.10
2023-04-04T12:15:17.298Z,3.22
2023-04-04T12:17:49.120Z,1.13
2023-04-04T12:20:19.017Z,3.90
2023-04-04T12:22:50.900Z,6.82
2023-04-04T12:25:21.100Z,2.58
2023-04-04T12:27:49.941Z,2.90
2023-04-04T12:30:19.015Z,2.83
2023-04-04T12:32:48.494Z,1.92
2023-04-04T12:35:18.749Z,2.90
2023-04-04T12:38:07.252Z,4.00
2023-04-04T12:40:38.156Z,3.97
2023-04-04T12:43:07.799Z,2.05
2023-04-04T12:45:40.360Z,2.78
2023-04-04T12:48:14.146Z,3.65
2023-04-04T12:50:57.179Z,2.47
2023-04-04T12:56:16.269Z,3.80
2023-04-04T12:58:48.306Z,2.17
2023-04-04T13:01:17.457Z,3.45
2023-04-04T13:03:45.528Z,1.63
2023-04-04T13:06:17.527Z,1.73
2023-04-04T13:08:53.026Z,4.20
2023-04-04T13:11:21.758Z,4.35
2023-04-04T13:13:49.803Z,3.25
2023-04-04T13:16:32.189Z,6.03
2023-04-04T13:19:00.934Z,3.63
2023-04-04T13:21:30.867Z,1.52
2023-04-04T13:23:59.282Z,4.40
2023-04-04T13:26:27.731Z,2.88
2023-04-04T13:28:55.939Z,3.83
2023-04-04T13:31:24.418Z,4.22
2023-04-04T13:33:52.483Z,2.85
2023-04-04T13:36:20.548Z,3.95
2023-04-04T13:38:49.921Z,5.07
2023-04-04T13:41:17.870Z,4.47
2023-04-04T13:43:45.870Z,7.80
2023-04-04T13:46:13.859Z,4.03
2023-04-04T13:48:41.913Z,9.30
2023-04-04T13:51:09.835Z,1.80
2023-04-04T13:53:37.904Z,1.98
2023-04-04T13:58:38.747Z,1.67
2023-04-04T14:01:07.090Z,2.55
2023-04-04T14:03:35.522Z,2.90
2023-04-04T14:06:09.932Z,3.92
2023-04-04T14:08:39.422Z,5.60
2023-04-04T14:11:08.988Z,7.15
2023-04-04T14:13:37.291Z,2.42
2023-04-04T14:16:05.460Z,3.55
2023-04-04T14:18:34.515Z,4.53
2023-04-04T14:21:03.055Z,4.72
2023-04-04T14:23:31.710Z,3.20
2023-04-04T14:25:59.861Z,4.95
2023-04-04T14:28:29.648Z,3.58
2023-04-04T14:30:57.579Z,5.80
2023-04-04T14:33:26.298Z,6.00
2023-04-04T14:35:54.182Z,7.60
2023-04-04T14:38:22.268Z,9.27
2023-04-04T14:40:50.241Z,4.10
2023-04-04T14:43:18.211Z,2.50
2023-04-04T14:45:47.789Z,3.78
2023-04-04T14:48:15.784Z,7.90
2023-04-04T14:50:43.905Z,4.20
2023-04-04T14:53:12.116Z,3.33
2023-04-04T14:55:40.288Z,1.23
2023-04-04T14:58:08.516Z,13.50
2023-04-04T15:00:36.430Z,7.13
2023-04-04T15:03:08.342Z,3.78
2023-04-04T15:05:36.559Z,3.45
2023-04-04T15:08:05.330Z,3.47
2023-04-04T15:10:33.319Z,4.15
2023-04-04T15:13:01.411Z,2.78
2023-04-04T15:15:30.072Z,2.67
2023-04-04T15:17:58.157Z,4.00
2023-04-04T15:20:27.803Z,2.50
2023-04-04T15:22:55.811Z,4.20
2023-04-04T15:25:24.015Z,4.70
2023-04-04T15:27:52.056Z,5.82
2023-04-04T15:30:20.239Z,7.50
2023-04-04T15:32:48.294Z,7.15
2023-04-04T15:35:18.821Z,4.22
2023-04-04T15:37:49.170Z,175.98
2023-04-04T15:40:17.592Z,129.32
2023-04-04T15:42:46.382Z,103.75
2023-04-04T15:45:15.273Z,67.07
2023-04-04T15:47:44.973Z,62.50
2023-04-04T15:50:13.413Z,44.40
2023-04-04T15:52:41.826Z,38.47
2023-04-04T15:55:17.218Z,30.17
2023-04-04T15:57:46.874Z,24.83
2023-04-04T16:00:16.913Z,23.48
2023-04-04T16:02:45.084Z,18.73
2023-04-04T16:05:13.182Z,15.43
2023-04-04T16:07:41.205Z,12.35
2023-04-04T16:10:10.604Z,11.90
2023-04-04T16:12:40.030Z,18.50
2023-04-04T16:15:09.405Z,8.60
2023-04-04T16:17:37.587Z,12.65
2023-04-04T16:20:07.430Z,8.98
2023-04-04T16:22:35.467Z,9.27
2023-04-04T16:25:03.677Z,11.02
2023-04-04T16:27:31.663Z,5.30
2023-04-04T16:30:01.217Z,5.93
2023-04-04T16:32:29.217Z,4.50
2023-04-04T16:34:57.178Z,4.80
2023-04-04T16:37:25.182Z,9.82
2023-04-04T16:39:53.269Z,6.00
2023-04-04T16:42:21.366Z,10.88
2023-04-04T16:44:49.920Z,6.13
2023-04-04T16:47:19.197Z,5.57
2023-04-04T16:49:48.960Z,3.88
2023-04-04T16:52:17.085Z,4.00
2023-04-04T16:54:45.088Z,6.28
2023-04-04T16:57:13.246Z,9.75
2023-04-04T16:59:41.351Z,3.90
2023-04-04T17:02:09.587Z,6.47
2023-04-04T17:04:41.634Z,6.22
2023-04-04T17:07:10.260Z,4.97
2023-04-04T17:09:38.597Z,4.13
2023-04-04T17:12:07.476Z,7.22
2023-04-04T17:14:35.598Z,7.85
2023-04-04T17:17:05.336Z,6.38
2023-04-04T17:19:35.242Z,4.35
2023-04-04T17:22:04.837Z,4.35
2023-04-04T17:24:33.371Z,5.35
2023-04-04T17:27:02.502Z,6.57
2023-04-04T17:29:30.883Z,2.10
2023-04-04T17:31:59.689Z,3.80
2023-04-04T17:34:28.250Z,3.25
2023-04-04T17:36:56.742Z,5.60
2023-04-04T17:39:26.304Z,3.65
2023-04-04T17:41:54.630Z,4.55
2023-04-04T17:44:22.954Z,3.33
2023-04-04T17:46:51.229Z,5.03
2023-04-04T17:49:20.150Z,7.15
2023-04-04T17:51:48.880Z,6.68
2023-04-04T17:54:17.273Z,3.65
2023-04-04T17:56:46.935Z,14.25
2023-04-04T17:59:16.593Z,12.07
2023-04-04T18:01:44.957Z,7.53
2023-04-04T18:04:13.176Z,6.90
2023-04-04T18:06:41.919Z,5.68
2023-04-04T18:09:10.545Z,8.73
2023-04-04T18:11:40.150Z,6.45
2023-04-04T18:14:09.676Z,9.70
2023-04-04T18:16:40.359Z,10.07
2023-04-04T18:19:09.498Z,8.32
2023-04-04T18:21:38.065Z,10.27
2023-04-04T18:24:07.946Z,12.10
2023-04-04T18:26:36.010Z,9.82
2023-04-04T18:29:04.063Z,13.77
2023-04-04T18:31:33.678Z,9.82
2023-04-04T18:34:01.937Z,9.98
2023-04-04T18:36:29.868Z,10.73
2023-04-04T18:38:57.808Z,10.07
2023-04-04T18:41:25.899Z,11.00
2023-04-04T18:43:54.026Z,12.40
2023-04-04T18:46:22.072Z,18.13
2023-04-04T18:48:51.607Z,14.77
2023-04-04T18:51:22.079Z,15.20
2023-04-04T18:53:50.991Z,10.77
2023-04-04T18:56:19.016Z,12.57
2023-04-04T18:58:47.064Z,10.63
2023-04-04T19:01:16.349Z,8.63
2023-04-04T19:03:47.040Z,6.05
2023-04-04T19:06:16.652Z,12.93
2023-04-04T19:08:45.540Z,9.98
2023-04-04T19:11:14.150Z,17.38
2023-04-04T19:13:42.012Z,11.20
2023-04-04T19:16:10.022Z,16.83
2023-04-04T19:18:38.146Z,6.18
2023-04-04T19:21:07.582Z,10.80
2023-04-04T19:23:38.212Z,8.52
2023-04-04T19:26:07.355Z,14.77
2023-04-04T19:28:35.575Z,16.38
2023-04-04T19:31:06.364Z,12.38
2023-04-04T19:33:34.680Z,9.80
2023-04-04T19:36:09.161Z,10.43
2023-04-04T19:38:40.058Z,10.30
2023-04-04T19:41:12.553Z,9.00
2023-04-04T19:43:43.098Z,10.38
2023-04-04T19:46:12.329Z,12.60
2023-04-04T19:48:46.085Z,7.15
2023-04-04T19:51:37.566Z,8.20
2023-04-04T19:54:09.389Z,4.63
2023-04-04T19:56:37.449Z,7.63
2023-04-04T19:59:08.080Z,8.63
2023-04-04T20:01:42.652Z,5.10
2023-04-04T20:04:15.577Z,5.25
2023-04-04T20:06:43.727Z,6.53
2023-04-04T20:09:34.789Z,9.90
2023-04-04T20:12:02.938Z,9.00
2023-04-04T20:14:31.038Z,9.23
2023-04-04T20:16:58.974Z,10.10
2023-04-04T20:19:28.765Z,9.55
2023-04-04T20:21:57.109Z,12.52
2023-04-04T20:24:26.621Z,4.50
2023-04-04T20:26:56.869Z,10.88
2023-04-04T20:29:27.412Z,10.05
2023-04-04T20:31:57.569Z,12.52
2023-04-04T20:34:50.629Z,14.00
2023-04-04T20:37:21.976Z,11.23
2023-04-04T20:39:54.700Z,10.55
2023-04-04T20:42:38.196Z,5.32
2023-04-04T20:45:42.641Z,5.82
2023-04-04T20:48:34.633Z,6.85
2023-04-04T20:51:02.921Z,4.13
2023-04-04T20:53:32.743Z,8.25
2023-04-04T20:56:02.383Z,28.48
2023-04-04T20:58:31.907Z,26.75
2023-04-04T21:01:01.832Z,26.17
2023-04-04T21:03:35.860Z,11.70
2023-04-04T21:06:12.615Z,18.10
2023-04-04T21:08:45.502Z,11.05
2023-04-04T21:11:21.899Z,8.48
2023-04-04T21:13:50.095Z,5.88
2023-04-04T21:16:21.777Z,5.50
2023-04-04T21:18:49.810Z,5.75
2023-04-04T21:21:18.948Z,2.92
2023-04-04T21:23:52.746Z,9.13
2023-04-04T21:26:37.624Z,6.35
2023-04-04T21:29:07.291Z,7.05
2023-04-04T21:31:37.874Z,5.07
2023-04-04T21:34:11.994Z,4.35
2023-04-04T21:36:40.908Z,7.90
2023-04-04T21:39:12.677Z,7.65
2023-04-04T21:41:44.104Z,5.18
2023-04-04T21:44:12.224Z,2.85
2023-04-04T21:46:41.998Z,5.70
2023-04-04T21:49:10.378Z,6.93
2023-04-04T21:51:38.473Z,2.63
2023-04-04T21:54:06.861Z,4.65
2023-04-04T21:56:35.025Z,3.85
2023-04-04T21:59:05.478Z,3.17
2023-04-04T22:01:33.567Z,1.73
2023-04-04T22:04:01.675Z,10.82
2023-04-04T22:06:31.024Z,2.55
2023-04-04T22:09:01.597Z,5.35
2023-04-04T22:11:30.165Z,5.32
2023-04-04T22:14:08.043Z,6.97
2023-04-04T22:16:39.672Z,4.82
2023-04-04T22:19:10.916Z,4.65
2023-04-04T22:21:39.478Z,6.07
2023-04-04T22:24:10.066Z,4.18
2023-04-04T22:26:41.668Z,4.65
2023-04-04T22:29:09.950Z,3.13
2023-04-04T22:31:39.447Z,5.72
2023-04-04T22:34:07.541Z,21.38
2023-04-04T22:36:35.576Z,5.47
2023-04-04T22:39:03.807Z,4.28
2023-04-04T22:41:31.792Z,5.93
2023-04-04T22:43:59.855Z,4.88
2023-04-04T22:46:29.377Z,2.45
2023-04-04T22:49:06.347Z,7.03
2023-04-04T22:51:43.092Z,2.45
2023-04-04T22:54:13.175Z,4.32
2023-04-04T22:56:41.737Z,7.28
2023-04-04T22:59:09.892Z,2.30
2023-04-04T23:01:37.989Z,2.88
2023-04-04T23:04:08.028Z,5.10
2023-04-04T23:06:38.452Z,3.13
2023-04-04T23:09:07.521Z,5.68
2023-04-04T23:11:35.520Z,1.85
2023-04-04T23:14:08.462Z,4.15
2023-04-04T23:16:36.653Z,5.88
2023-04-04T23:19:04.975Z,4.18
2023-04-04T23:21:34.434Z,2.33
2023-04-04T23:24:02.413Z,2.75
2023-04-04T23:26:31.241Z,2.08
2023-04-04T23:28:59.260Z,4.30
2023-04-04T23:31:27.551Z,2.28
2023-04-04T23:33:56.048Z,5.22
2023-04-04T23:36:24.095Z,2.00
2023-04-04T23:38:53.552Z,2.47
2023-04-04T23:41:21.521Z,1.63
2023-04-04T23:43:49.684Z,3.92
2023-04-04T23:46:17.716Z,3.70
2023-04-04T23:48:45.785Z,2.75
2023-04-04T23:51:13.748Z,4.70
2023-04-04T23:53:41.764Z,2.20
2023-04-04T23:56:10.993Z,2.90
2023-04-04T23:58:39.424Z,1.98
